Airfield :
LOGIN :

Register | Disclaimer

   EN    FR    IT 

 










Legend :    VFR   Marginal VFR   IFR   Intensive IFR   Very Intensive IFR
Visi :
Ceiling :
>= 8 km
>= 3000ft
5 to 8 km
1000 to 3000 ft
1500m to 5 km
500 to 1000 ft
800 to 1500m
200 to 500 ft
< 800m
< 200 ft
Symbols :   Thunderstorms  Fog  Heavy snow  Heavy precipitations  Wind > 20 kt
SIGMETs :     Misc.  Thunderstorms  Icing  Turbulence  Mountain Waves  Volcanic Ashes







- Airport Elevation : 526 ft
- IATA code : LTN
- Download approach charts


EGGW - London Luton

CURRENT METAR :
  • 191220Z AUTO 14010KT 5000 BR BKN006/// 15/15 Q1002

EXPIRED METARs :
  • 191150Z AUTO 13010KT 2700 -RADZ BKN004/// 15/15 Q1002
  • 191120Z 12009KT 2700 -RADZ BKN004 15/15 Q1003
  • 191050Z AUTO 12008KT 2200 -RADZ BKN002 15/15 Q1004 REDZ
  • 191020Z AUTO 13007KT 0900 R08/1300 -RADZ OVC001 15/15 Q1004
  • 190950Z 12007KT 0300 R08/0600 FG VV/// 14/14 Q1004

TAF TAF EGGW
Valid from the 19 at 12:00 until the 20 at 12:00 UTC


191105Z 1912/2012 12008KT 2000 BR SCT003
BECMG 1912/1915 18012KT 9999 NSW BKN006
PROB30
TEMPO 1912/1915 RADZ
BECMG 1915/1917 FEW020
TEMPO 1919/2002 7000 RA BKN012
PROB30
TEMPO 1919/1922 3000 +RA BKN005
PROB30
TEMPO 1920/2006 19015G25KT
BECMG 2002/2005 7000 -RADZ BKN008
PROB30
TEMPO 2003/2011 3000 RADZ BR BKN004
BECMG 2005/2008 25014KT
PROB30
TEMPO 2006/2012 26017G27KT
BECMG 2010/2012 9999 NSW FEW025
ATIS : +44 1582 395 204
No reported NOTAMs for that airfield.



MET'MAP, your aeronautical weather chart ! - Copyright ORBIFLY December 2007 - Disclaimer

ORBIFLY MET'MAP TEAM :

Programming & Development : Alexandra Zaïnal
Concept & Development : Baudouin d'Aumeries
Co-Development & Prog : Marc-Olivier Méhu
Technical & hardware support : Manuel Goepfert

Contact : metmap@orbifly.com




SOURCES & CREDITS :

   NOAA